Wakarusa, IN (46573)

10:57 PM EDT on July 28, 2016 (GMT -0400)
Sloat Farms | | Change Station

Elev 830 ft 41.52 °N, 86.06 °W | Updated 23 seconds ago

Clear
Clear
68.6 °F
Feels Like 68.6 °F
N
0.0
Wind Variable Wind from NE
Gusts 0.0 mph

Today
High -- | Low -- °F
--% Chance of Precip.
Yesterday
High -- | Low -- °F
Precip. -- in
Pressure 29.90 in
Visibility 10.0 miles
Clouds Clear
Dew Point 67 °F
Humidity 95%
Rainfall in
Snow Depth Not available.
6:35 AM 9:05 PM
Waning Crescent, 26% visible
METAR KEKM 290050Z 06005KT 10SM CLR 22/20 A2990 RMK AO2 LAST
Pressure 29.90 in
Visibility 10.0 miles
Clouds Clear
Dew Point 67 °F
Humidity 95%
Rainfall in
Snow Depth Not available.
6:35 AM 9:05 PM
Waning Crescent, 26% visible
METAR KEKM 290050Z 06005KT 10SM CLR 22/20 A2990 RMK AO2 LAST

10-Day Weather Forecast

Almanac

Astronomy

Jul. 28, 2016 Rise Set
Actual Time
Civil Twilight
Nautical Twilight
Astronomical Twilight
Moon
Length of Visible Light
Length of Day
Tomorrow will be .
, % of the Moon is Illuminated

Today's Extremes

State Highs State Lows

Community

WunderPhotos

Upload Photos

1,928,274 photos uploaded!

WunderBlog® & News

Nearby

Air Quality

  Air Quality AQ Index Pollutant
Not available.

Snow Depth

Station Depth Elevation

Earthquake Activity

City Distance Mag. Time & Date
Minimum magnitude displayed is 2.5.

Coastal Water Temperatures

Place Temperature

Stations

Nearby Weather Stations

Station Location Temp. Windchill Dew Point Humidity Wind Precip. Elev Updated Type
                   

Watches & Warnings

There are currently no watches in effect.